createdAt,value
2022-08-31T00:00:15.126Z,18.30
2022-08-31T00:03:00.499Z,18.30
2022-08-31T00:05:28.291Z,18.40
2022-08-31T00:07:55.572Z,18.20
2022-08-31T00:10:32.531Z,18.10
2022-08-31T00:13:06.974Z,18.10
2022-08-31T00:15:35.297Z,18.00
2022-08-31T00:18:02.236Z,18.00
2022-08-31T00:20:33.822Z,18.00
2022-08-31T00:23:04.133Z,17.90
2022-08-31T00:25:31.366Z,18.00
2022-08-31T00:27:58.236Z,18.00
2022-08-31T00:30:25.444Z,18.00
2022-08-31T00:32:52.555Z,17.80
2022-08-31T00:35:19.593Z,17.90
2022-08-31T00:37:46.474Z,17.90
2022-08-31T00:40:13.757Z,17.80
2022-08-31T00:42:40.771Z,17.80
2022-08-31T00:45:09.073Z,17.80
2022-08-31T00:47:36.348Z,17.70
2022-08-31T00:50:07.420Z,17.70
2022-08-31T00:52:41.543Z,17.70
2022-08-31T00:55:13.859Z,17.60
2022-08-31T00:57:44.794Z,17.70
2022-08-31T01:00:16.452Z,17.60
2022-08-31T01:02:43.856Z,17.70
2022-08-31T01:05:11.487Z,17.60
2022-08-31T01:07:38.862Z,17.70
2022-08-31T01:10:07.254Z,17.70
2022-08-31T01:12:34.667Z,17.50
2022-08-31T01:15:04.822Z,17.40
2022-08-31T01:17:34.185Z,17.50
2022-08-31T01:20:20.351Z,17.50
2022-08-31T01:23:08.115Z,17.50
2022-08-31T01:25:37.162Z,17.60
2022-08-31T01:28:08.625Z,17.50
2022-08-31T01:30:36.500Z,17.40
2022-08-31T01:33:04.098Z,17.30
2022-08-31T01:35:32.641Z,17.30
2022-08-31T01:37:59.597Z,17.30
2022-08-31T01:40:34.432Z,17.30
2022-08-31T01:43:01.331Z,17.30
2022-08-31T01:45:28.491Z,17.20
2022-08-31T01:47:55.328Z,17.30
2022-08-31T01:50:22.403Z,17.30
2022-08-31T01:52:49.159Z,17.30
2022-08-31T01:55:16.007Z,17.30
2022-08-31T01:57:42.938Z,17.40
2022-08-31T02:00:10.473Z,17.30
2022-08-31T02:02:37.386Z,17.30
2022-08-31T02:05:06.080Z,17.30
2022-08-31T02:07:33.122Z,17.20
2022-08-31T02:09:59.942Z,17.20
2022-08-31T02:12:26.650Z,17.30
2022-08-31T02:14:53.672Z,17.30
2022-08-31T02:17:20.440Z,17.20
2022-08-31T02:19:47.218Z,17.00
2022-08-31T02:22:13.992Z,17.00
2022-08-31T02:24:40.840Z,17.00
2022-08-31T02:27:07.691Z,16.90
2022-08-31T02:29:34.726Z,16.90
2022-08-31T02:32:01.687Z,16.90
2022-08-31T02:34:29.272Z,16.80
2022-08-31T02:36:56.820Z,16.90
2022-08-31T02:39:23.952Z,16.90
2022-08-31T02:41:50.789Z,17.00
2022-08-31T02:44:17.562Z,16.90
2022-08-31T02:46:44.543Z,16.90
2022-08-31T02:49:11.335Z,16.80
2022-08-31T02:51:42.668Z,16.80
2022-08-31T02:54:09.978Z,16.80
2022-08-31T02:56:37.163Z,16.90
2022-08-31T02:59:04.196Z,16.70
2022-08-31T03:01:31.026Z,16.70
2022-08-31T03:03:58.084Z,16.90
2022-08-31T03:06:24.946Z,16.90
2022-08-31T03:08:51.803Z,16.90
2022-08-31T03:11:19.283Z,16.90
2022-08-31T03:13:46.060Z,16.70
2022-08-31T03:16:15.765Z,16.70
2022-08-31T03:18:42.899Z,16.70
2022-08-31T03:21:09.800Z,16.60
2022-08-31T03:23:36.893Z,16.70
2022-08-31T03:26:05.687Z,16.70
2022-08-31T03:28:39.071Z,16.70
2022-08-31T03:31:10.479Z,16.70
2022-08-31T03:33:37.513Z,16.60
2022-08-31T03:36:05.614Z,16.60
2022-08-31T03:38:32.755Z,16.60
2022-08-31T03:41:01.211Z,16.60
2022-08-31T03:43:28.200Z,16.60
2022-08-31T03:45:55.103Z,16.50
2022-08-31T03:48:21.943Z,16.60
2022-08-31T03:50:48.863Z,16.50
2022-08-31T03:53:21.875Z,16.50
2022-08-31T03:55:49.954Z,16.50
2022-08-31T03:58:16.905Z,16.30
2022-08-31T04:00:44.442Z,16.40
2022-08-31T04:03:11.702Z,16.50
2022-08-31T04:05:43.557Z,16.40
2022-08-31T04:08:10.519Z,16.40
2022-08-31T04:10:40.102Z,16.30
2022-08-31T04:13:07.040Z,16.40
2022-08-31T04:15:36.165Z,16.30
2022-08-31T04:18:03.179Z,16.30
2022-08-31T04:20:33.246Z,16.30
2022-08-31T04:23:00.062Z,16.00
2022-08-31T04:25:26.917Z,16.00
2022-08-31T04:27:55.180Z,16.00
2022-08-31T04:30:25.133Z,15.90
2022-08-31T04:32:53.490Z,15.90
2022-08-31T04:35:20.454Z,15.90
2022-08-31T04:37:47.479Z,15.80
2022-08-31T04:40:25.441Z,15.80
2022-08-31T04:42:52.707Z,16.00
2022-08-31T04:45:19.568Z,15.90
2022-08-31T04:47:46.331Z,15.80
2022-08-31T04:50:16.437Z,15.80
2022-08-31T04:52:45.090Z,15.70
2022-08-31T04:55:30.082Z,15.70
2022-08-31T04:57:57.410Z,15.80
2022-08-31T05:00:24.850Z,15.90
2022-08-31T05:02:53.995Z,15.90
2022-08-31T05:05:20.950Z,15.80
2022-08-31T05:07:47.750Z,15.80
2022-08-31T05:10:15.120Z,15.70
2022-08-31T05:12:41.927Z,15.60
2022-08-31T05:15:09.019Z,15.60
2022-08-31T05:17:35.866Z,15.70
2022-08-31T05:20:03.090Z,15.70
2022-08-31T05:22:30.260Z,15.60
2022-08-31T05:24:57.199Z,15.70
2022-08-31T05:27:24.083Z,15.60
2022-08-31T05:29:50.981Z,15.60
2022-08-31T05:32:17.690Z,15.60
2022-08-31T05:34:45.590Z,15.60
2022-08-31T05:37:14.255Z,15.60
2022-08-31T05:39:41.126Z,15.60
2022-08-31T05:42:07.946Z,15.50
2022-08-31T05:44:35.762Z,15.60
2022-08-31T05:47:05.502Z,15.70
2022-08-31T05:49:33.091Z,15.70
2022-08-31T05:52:01.704Z,15.60
2022-08-31T05:54:29.026Z,15.60
2022-08-31T05:57:01.324Z,15.50
2022-08-31T05:59:31.269Z,15.60
2022-08-31T06:01:58.737Z,15.70
2022-08-31T06:04:26.898Z,15.80
2022-08-31T06:06:54.237Z,15.70
2022-08-31T06:09:21.092Z,15.90
2022-08-31T06:11:47.978Z,15.90
2022-08-31T06:14:15.071Z,16.00
2022-08-31T06:16:44.005Z,15.90
2022-08-31T06:19:12.536Z,16.00
2022-08-31T06:21:49.690Z,16.00
2022-08-31T06:24:17.847Z,15.90
2022-08-31T06:26:56.711Z,15.90
2022-08-31T06:29:25.098Z,15.80
2022-08-31T06:31:52.067Z,15.70
2022-08-31T06:34:20.163Z,15.70
2022-08-31T06:36:48.277Z,15.80
2022-08-31T06:39:16.293Z,15.80
2022-08-31T06:41:43.546Z,16.10
2022-08-31T06:44:12.624Z,16.10
2022-08-31T06:46:40.889Z,16.20
2022-08-31T06:49:08.623Z,16.30
2022-08-31T06:51:38.028Z,16.40
2022-08-31T06:54:27.443Z,16.30
2022-08-31T06:56:54.280Z,16.50
2022-08-31T06:59:25.326Z,16.80
2022-08-31T07:01:55.245Z,16.80
2022-08-31T07:04:22.156Z,16.60
2022-08-31T07:06:48.949Z,16.50
2022-08-31T07:09:18.004Z,16.50
2022-08-31T07:11:52.173Z,16.40
2022-08-31T07:14:24.819Z,16.50
2022-08-31T07:16:54.350Z,16.60
2022-08-31T07:19:22.133Z,16.60
2022-08-31T07:21:54.692Z,16.70
2022-08-31T07:24:25.255Z,16.70
2022-08-31T07:26:55.012Z,16.60
2022-08-31T07:29:23.127Z,16.70
2022-08-31T07:31:50.756Z,16.70
2022-08-31T07:34:21.013Z,16.90
2022-08-31T07:37:07.215Z,17.10
2022-08-31T07:39:53.729Z,17.20
2022-08-31T07:42:26.837Z,17.20
2022-08-31T07:44:55.230Z,17.20
2022-08-31T07:47:29.080Z,17.40
2022-08-31T07:49:58.525Z,17.60
2022-08-31T07:52:28.858Z,17.70
2022-08-31T07:55:06.474Z,17.80
2022-08-31T07:57:38.290Z,17.80
2022-08-31T08:00:09.233Z,17.90
2022-08-31T08:02:39.445Z,18.10
2022-08-31T08:05:11.531Z,18.10
2022-08-31T08:07:40.428Z,18.10
2022-08-31T08:10:14.059Z,18.30
2022-08-31T08:12:47.116Z,18.50
2022-08-31T08:15:15.220Z,18.50
2022-08-31T08:17:42.152Z,18.70
2022-08-31T08:20:13.499Z,18.70
2022-08-31T08:22:54.232Z,18.90
2022-08-31T08:25:26.033Z,18.90
2022-08-31T08:27:54.729Z,19.20
2022-08-31T08:30:21.958Z,19.40
2022-08-31T08:32:48.824Z,19.40
2022-08-31T08:35:16.485Z,19.70
2022-08-31T08:37:58.575Z,19.90
2022-08-31T08:40:42.389Z,19.80
2022-08-31T08:43:16.287Z,19.80
2022-08-31T08:45:51.654Z,20.10
2022-08-31T08:48:23.173Z,20.30
2022-08-31T08:50:52.936Z,20.50
2022-08-31T08:53:24.081Z,20.50
2022-08-31T08:55:51.636Z,20.70
2022-08-31T08:58:19.231Z,20.90
2022-08-31T09:00:56.283Z,21.00
2022-08-31T09:03:59.985Z,21.00
2022-08-31T09:06:45.323Z,20.80
2022-08-31T09:09:15.623Z,20.80
2022-08-31T09:12:14.895Z,21.00
2022-08-31T09:15:15.684Z,21.30
2022-08-31T09:18:21.847Z,21.50
2022-08-31T09:21:17.341Z,21.50
2022-08-31T09:23:49.223Z,22.20
2022-08-31T09:26:17.917Z,21.40
2022-08-31T09:28:50.976Z,21.60
2022-08-31T09:31:37.769Z,21.60
2022-08-31T09:34:24.791Z,22.10
2022-08-31T09:36:56.772Z,22.10
2022-08-31T09:39:37.242Z,22.10
2022-08-31T09:42:18.291Z,22.00
2022-08-31T09:44:49.269Z,21.80
2022-08-31T09:47:56.004Z,21.80
2022-08-31T09:50:45.136Z,21.50
2022-08-31T09:53:45.518Z,21.70
2022-08-31T09:56:18.510Z,22.00
2022-08-31T09:58:52.529Z,21.90
2022-08-31T10:01:44.964Z,21.90
2022-08-31T10:04:18.862Z,21.80
2022-08-31T10:07:11.370Z,21.40
2022-08-31T10:09:58.616Z,21.50
2022-08-31T10:12:41.710Z,21.30
2022-08-31T10:15:23.792Z,21.50
2022-08-31T10:18:03.178Z,21.90
2022-08-31T10:20:38.204Z,22.20
2022-08-31T10:23:19.201Z,22.00
2022-08-31T10:25:52.742Z,21.80
2022-08-31T10:28:51.978Z,21.60
2022-08-31T10:31:23.991Z,21.80
2022-08-31T10:34:24.830Z,21.60
2022-08-31T10:37:08.034Z,21.60
2022-08-31T10:39:48.396Z,21.60
2022-08-31T10:42:43.691Z,21.70
2022-08-31T10:45:19.034Z,21.90
2022-08-31T10:47:49.367Z,22.00
2022-08-31T10:50:48.869Z,22.30
2022-08-31T10:53:19.039Z,22.40
2022-08-31T10:56:14.292Z,22.70
2022-08-31T10:58:47.676Z,22.40
2022-08-31T11:01:26.738Z,22.30
2022-08-31T11:04:15.295Z,22.40
2022-08-31T11:06:53.165Z,22.30
2022-08-31T11:09:26.145Z,22.80
2022-08-31T11:12:09.694Z,22.90
2022-08-31T11:14:58.638Z,23.10
2022-08-31T11:17:47.398Z,23.20
2022-08-31T11:20:32.666Z,23.90
2022-08-31T11:23:14.514Z,24.00
2022-08-31T11:26:27.115Z,23.80
2022-08-31T11:29:00.129Z,23.70
2022-08-31T11:31:30.485Z,23.40
2022-08-31T11:34:15.980Z,23.40
2022-08-31T11:36:55.210Z,24.50
2022-08-31T11:39:44.403Z,23.90
2022-08-31T11:42:23.991Z,24.40
2022-08-31T11:45:06.826Z,25.00
2022-08-31T11:47:38.939Z,25.30
2022-08-31T11:50:12.642Z,25.30
2022-08-31T11:52:48.217Z,25.70
2022-08-31T11:55:21.144Z,25.90
2022-08-31T11:58:06.335Z,26.20
2022-08-31T12:00:48.802Z,26.60
2022-08-31T12:03:37.100Z,26.50
2022-08-31T12:06:07.965Z,27.40
2022-08-31T12:08:46.834Z,27.80
2022-08-31T12:11:49.116Z,28.00
2022-08-31T12:14:31.188Z,28.30
2022-08-31T12:17:22.885Z,28.20
2022-08-31T12:20:22.416Z,27.60
2022-08-31T12:23:30.611Z,27.80
2022-08-31T12:26:25.970Z,27.60
2022-08-31T12:29:18.575Z,27.30
2022-08-31T12:32:11.049Z,27.70
2022-08-31T12:35:04.163Z,28.20
2022-08-31T12:37:36.051Z,29.20
2022-08-31T12:40:19.467Z,29.00
2022-08-31T12:42:56.194Z,27.60
2022-08-31T12:45:40.471Z,27.90
2022-08-31T12:48:32.738Z,28.60
2022-08-31T12:51:24.448Z,27.80
2022-08-31T12:54:09.298Z,28.90
2022-08-31T12:56:59.403Z,28.80
2022-08-31T13:00:01.601Z,28.20
2022-08-31T13:02:31.675Z,28.40
2022-08-31T13:05:00.363Z,28.40
2022-08-31T13:07:33.018Z,28.10
2022-08-31T13:10:28.153Z,27.90
2022-08-31T13:12:58.340Z,27.80
2022-08-31T13:15:39.594Z,28.70
2022-08-31T13:18:24.640Z,28.80
2022-08-31T13:20:56.894Z,27.90
2022-08-31T13:23:30.099Z,27.90
2022-08-31T13:26:15.064Z,27.70
2022-08-31T13:28:41.878Z,27.40
2022-08-31T13:31:09.678Z,27.90
2022-08-31T13:33:40.434Z,27.30
2022-08-31T13:36:32.233Z,26.50
2022-08-31T13:39:25.604Z,26.70
2022-08-31T13:42:07.713Z,27.20
2022-08-31T13:44:39.360Z,27.60
2022-08-31T13:47:30.882Z,26.80
2022-08-31T13:50:13.100Z,26.60
2022-08-31T13:53:16.144Z,26.80
2022-08-31T13:55:43.553Z,26.50
2022-08-31T13:58:22.900Z,26.10
2022-08-31T14:00:58.116Z,25.70
2022-08-31T14:03:58.308Z,25.60
2022-08-31T14:06:29.636Z,25.60
2022-08-31T14:09:17.317Z,25.90
2022-08-31T14:11:54.053Z,26.00
2022-08-31T14:14:26.728Z,26.00
2022-08-31T14:16:57.698Z,25.80
2022-08-31T14:19:32.482Z,25.40
2022-08-31T14:22:31.591Z,25.20
2022-08-31T14:25:00.804Z,24.90
2022-08-31T14:27:29.423Z,24.90
2022-08-31T14:29:58.466Z,24.80
2022-08-31T14:32:25.769Z,24.90
2022-08-31T14:34:53.415Z,25.10
2022-08-31T14:37:22.198Z,25.30
2022-08-31T14:39:51.002Z,25.40
2022-08-31T14:42:26.585Z,25.30
2022-08-31T14:44:59.557Z,25.30
2022-08-31T14:47:30.299Z,25.20
2022-08-31T14:49:59.755Z,24.90
2022-08-31T14:52:26.924Z,24.80
2022-08-31T14:54:54.000Z,24.80
2022-08-31T14:57:25.451Z,24.90
2022-08-31T14:59:59.524Z,25.00
2022-08-31T15:02:28.472Z,25.40
2022-08-31T15:05:01.211Z,25.40
2022-08-31T15:07:32.147Z,25.20
2022-08-31T15:09:59.480Z,25.00
2022-08-31T15:12:26.827Z,25.20
2022-08-31T15:14:58.895Z,24.90
2022-08-31T15:17:30.631Z,24.90
2022-08-31T15:19:57.488Z,24.90
2022-08-31T15:22:28.030Z,24.70
2022-08-31T15:24:55.625Z,24.70
2022-08-31T15:27:23.437Z,24.60
2022-08-31T15:29:56.181Z,24.50
2022-08-31T15:32:23.061Z,24.70
2022-08-31T15:34:58.967Z,24.60
2022-08-31T15:37:31.658Z,24.70
2022-08-31T15:40:00.992Z,24.70
2022-08-31T15:42:29.539Z,24.80
2022-08-31T15:44:57.248Z,24.60
2022-08-31T15:48:01.098Z,24.60
2022-08-31T15:50:31.561Z,24.70
2022-08-31T15:53:09.494Z,24.80
2022-08-31T15:55:40.616Z,24.90
2022-08-31T15:58:09.430Z,24.70
2022-08-31T16:00:37.288Z,24.50
2022-08-31T16:03:05.129Z,24.60
2022-08-31T16:05:39.196Z,24.40
2022-08-31T16:08:10.212Z,24.30
2022-08-31T16:10:42.836Z,24.40
2022-08-31T16:13:09.979Z,24.30
2022-08-31T16:15:38.731Z,24.30
2022-08-31T16:18:06.771Z,24.40
2022-08-31T16:20:34.753Z,24.20
2022-08-31T16:23:03.053Z,24.20
2022-08-31T16:25:47.869Z,24.30
2022-08-31T16:28:16.802Z,24.50
2022-08-31T16:30:44.452Z,24.50
2022-08-31T16:33:12.206Z,24.50
2022-08-31T16:35:39.620Z,24.50
2022-08-31T16:38:07.194Z,24.40
2022-08-31T16:40:35.464Z,24.40
2022-08-31T16:43:03.107Z,24.40
2022-08-31T16:45:30.375Z,24.30
2022-08-31T16:48:15.809Z,24.30
2022-08-31T16:50:50.382Z,24.50
2022-08-31T16:53:18.570Z,24.30
2022-08-31T16:55:47.515Z,24.20
2022-08-31T16:58:21.583Z,24.10
2022-08-31T17:01:12.629Z,24.10
2022-08-31T17:03:43.776Z,23.90
2022-08-31T17:06:10.622Z,23.90
2022-08-31T17:08:41.264Z,23.80
2022-08-31T17:11:23.707Z,23.90
2022-08-31T17:13:53.587Z,23.70
2022-08-31T17:16:23.269Z,23.70
2022-08-31T17:18:52.494Z,23.70
2022-08-31T17:21:22.339Z,23.60
2022-08-31T17:23:51.364Z,23.60
2022-08-31T17:26:23.043Z,23.60
2022-08-31T17:28:57.306Z,23.60
2022-08-31T17:31:24.972Z,23.60
2022-08-31T17:33:55.329Z,23.50
2022-08-31T17:36:23.348Z,23.30
2022-08-31T17:38:50.547Z,23.40
2022-08-31T17:41:17.310Z,23.30
2022-08-31T17:43:44.847Z,23.30
2022-08-31T17:46:13.812Z,23.20
2022-08-31T17:48:44.146Z,23.20
2022-08-31T17:51:27.101Z,23.10
2022-08-31T17:53:57.880Z,23.10
2022-08-31T17:56:28.569Z,23.10
2022-08-31T17:58:55.396Z,23.00
2022-08-31T18:01:27.398Z,22.90
2022-08-31T18:03:54.821Z,22.90
2022-08-31T18:06:21.627Z,22.80
2022-08-31T18:08:49.906Z,22.80
2022-08-31T18:11:16.852Z,22.80
2022-08-31T18:13:44.038Z,22.70
2022-08-31T18:16:14.421Z,22.60
2022-08-31T18:18:47.782Z,22.60
2022-08-31T18:21:17.263Z,22.60
2022-08-31T18:23:44.288Z,22.60
2022-08-31T18:26:25.087Z,22.60
2022-08-31T18:28:53.178Z,22.50
2022-08-31T18:31:30.227Z,22.40
2022-08-31T18:34:01.390Z,22.40
2022-08-31T18:36:29.608Z,22.40
2022-08-31T18:38:58.721Z,22.30
2022-08-31T18:41:46.488Z,22.10
2022-08-31T18:44:32.663Z,22.10
2022-08-31T18:47:05.989Z,22.00
2022-08-31T18:49:36.649Z,22.00
2022-08-31T18:52:03.681Z,22.10
2022-08-31T18:54:32.007Z,22.10
2022-08-31T18:56:59.278Z,21.90
2022-08-31T18:59:26.329Z,21.90
2022-08-31T19:01:53.367Z,21.80
2022-08-31T19:04:22.011Z,21.80
2022-08-31T19:06:49.107Z,21.70
2022-08-31T19:09:16.169Z,21.70
2022-08-31T19:11:48.886Z,21.60
2022-08-31T19:14:22.609Z,21.60
2022-08-31T19:16:53.769Z,21.60
2022-08-31T19:19:28.953Z,21.50
2022-08-31T19:21:56.000Z,21.50
2022-08-31T19:24:23.127Z,21.40
2022-08-31T19:26:55.890Z,21.50
2022-08-31T19:29:26.629Z,21.50
2022-08-31T19:31:55.819Z,21.50
2022-08-31T19:34:25.895Z,21.40
2022-08-31T19:36:55.421Z,21.30
2022-08-31T19:39:26.469Z,21.40
2022-08-31T19:41:56.899Z,21.40
2022-08-31T19:44:27.545Z,21.50
2022-08-31T19:46:55.815Z,21.50
2022-08-31T19:49:23.691Z,21.30
2022-08-31T19:51:55.053Z,21.20
2022-08-31T19:54:23.365Z,21.30
2022-08-31T19:56:50.303Z,21.30
2022-08-31T19:59:20.095Z,21.20
2022-08-31T20:01:53.153Z,21.20
2022-08-31T20:04:29.787Z,21.10
2022-08-31T20:06:57.542Z,21.10
2022-08-31T20:09:25.063Z,21.10
2022-08-31T20:11:54.323Z,20.80
2022-08-31T20:14:21.887Z,20.80
2022-08-31T20:16:49.909Z,20.80
2022-08-31T20:19:26.913Z,20.80
2022-08-31T20:21:55.737Z,20.70
2022-08-31T20:24:25.436Z,20.70
2022-08-31T20:26:57.265Z,20.60
2022-08-31T20:29:24.212Z,20.60
2022-08-31T20:31:52.446Z,20.70
2022-08-31T20:34:22.084Z,20.60
2022-08-31T20:36:50.905Z,20.60
2022-08-31T20:39:19.565Z,20.70
2022-08-31T20:41:52.326Z,20.60
2022-08-31T20:44:31.530Z,20.60
2022-08-31T20:47:19.424Z,20.60
2022-08-31T20:49:51.528Z,20.50
2022-08-31T20:52:18.404Z,20.40
2022-08-31T20:54:45.551Z,20.40
2022-08-31T20:57:13.830Z,20.20
2022-08-31T20:59:41.545Z,20.20
2022-08-31T21:02:10.061Z,20.10
2022-08-31T21:04:40.409Z,20.20
2022-08-31T21:07:15.469Z,20.00
2022-08-31T21:09:44.533Z,20.00
2022-08-31T21:12:17.947Z,20.10
2022-08-31T21:14:45.796Z,20.10
2022-08-31T21:17:14.202Z,20.00
2022-08-31T21:19:42.126Z,19.90
2022-08-31T21:22:12.104Z,19.90
2022-08-31T21:24:41.900Z,19.70
2022-08-31T21:27:13.666Z,19.80
2022-08-31T21:29:40.871Z,19.80
2022-08-31T21:32:10.046Z,19.80
2022-08-31T21:34:37.794Z,19.70
2022-08-31T21:37:07.249Z,19.60
2022-08-31T21:39:34.104Z,19.70
2022-08-31T21:42:01.005Z,19.60
2022-08-31T21:44:28.443Z,19.50
2022-08-31T21:46:55.353Z,19.40
2022-08-31T21:49:22.613Z,19.30
2022-08-31T21:51:55.136Z,19.30
2022-08-31T21:54:27.436Z,19.30
2022-08-31T21:56:59.830Z,19.10
2022-08-31T21:59:29.166Z,19.00
2022-08-31T22:02:00.345Z,19.00
2022-08-31T22:04:31.937Z,19.00
2022-08-31T22:06:59.585Z,19.00
2022-08-31T22:09:27.892Z,18.90
2022-08-31T22:11:58.024Z,19.00
2022-08-31T22:14:29.356Z,18.90
2022-08-31T22:16:57.901Z,18.70
2022-08-31T22:19:27.131Z,18.50
2022-08-31T22:22:01.402Z,18.60
2022-08-31T22:24:30.941Z,18.60
2022-08-31T22:27:00.037Z,18.40
2022-08-31T22:29:31.428Z,18.40
2022-08-31T22:32:03.831Z,18.40
2022-08-31T22:34:30.983Z,18.40
2022-08-31T22:36:57.740Z,18.40
2022-08-31T22:39:27.973Z,18.50
2022-08-31T22:41:55.611Z,18.30
2022-08-31T22:44:26.970Z,18.40
2022-08-31T22:46:56.247Z,18.40
2022-08-31T22:49:24.197Z,18.20
2022-08-31T22:51:51.009Z,18.20
2022-08-31T22:54:19.336Z,18.20
2022-08-31T22:56:47.333Z,18.20
2022-08-31T22:59:17.563Z,18.10
2022-08-31T23:01:49.801Z,18.00
2022-08-31T23:04:19.947Z,18.00
2022-08-31T23:06:49.218Z,18.10
2022-08-31T23:09:21.058Z,18.10
2022-08-31T23:11:51.328Z,18.00
2022-08-31T23:14:21.081Z,17.90
2022-08-31T23:16:57.287Z,17.90
2022-08-31T23:19:30.429Z,17.90
2022-08-31T23:21:58.953Z,18.00
2022-08-31T23:24:46.918Z,17.90
2022-08-31T23:27:17.373Z,17.90
2022-08-31T23:29:51.298Z,17.70
2022-08-31T23:32:21.788Z,17.60
2022-08-31T23:34:52.618Z,17.70
2022-08-31T23:37:25.712Z,17.70
2022-08-31T23:39:54.430Z,17.70
2022-08-31T23:42:23.147Z,17.60
2022-08-31T23:44:50.402Z,17.60
2022-08-31T23:47:21.364Z,17.80
2022-08-31T23:49:51.205Z,17.60
2022-08-31T23:52:23.858Z,17.70
2022-08-31T23:54:53.406Z,17.60
2022-08-31T23:57:31.575Z,17.60
